createdAt,value
2022-08-21T00:00:01.632Z,95911.81
2022-08-21T00:02:30.418Z,95957.22
2022-08-21T00:04:58.134Z,96033.91
2022-08-21T00:07:26.927Z,96038.28
2022-08-21T00:09:55.114Z,95981.63
2022-08-21T00:12:23.562Z,96038.44
2022-08-21T00:14:51.223Z,95976.03
2022-08-21T00:17:26.218Z,96011.22
2022-08-21T00:19:53.939Z,96037.06
2022-08-21T00:22:22.688Z,96009.78
2022-08-21T00:24:50.741Z,96029.06
2022-08-21T00:27:18.400Z,96029.66
2022-08-21T00:29:46.317Z,95983.84
2022-08-21T00:32:14.270Z,96013.09
2022-08-21T00:35:00.276Z,96002.63
2022-08-21T00:37:28.180Z,95918.38
2022-08-21T00:39:58.329Z,95909.16
2022-08-21T00:42:26.327Z,95915.25
2022-08-21T00:44:54.047Z,96020.78
2022-08-21T00:47:22.127Z,95981.00
2022-08-21T00:49:51.146Z,95912.13
2022-08-21T00:52:22.771Z,96029.38
2022-08-21T00:54:51.194Z,96027.03
2022-08-21T00:57:22.102Z,96024.06
2022-08-21T00:59:57.851Z,95956.72
2022-08-21T01:02:26.733Z,96017.00
2022-08-21T01:04:55.877Z,95997.25
2022-08-21T01:07:23.745Z,95977.84
2022-08-21T01:09:55.434Z,96012.66
2022-08-21T01:12:23.964Z,96014.34
2022-08-21T01:14:51.770Z,95996.03
2022-08-21T01:17:22.486Z,96009.16
2022-08-21T01:19:50.146Z,95999.44
2022-08-21T01:22:20.436Z,96012.91
2022-08-21T01:24:48.129Z,95995.53
2022-08-21T01:27:16.064Z,96005.09
2022-08-21T01:29:47.308Z,96001.00
2022-08-21T01:32:17.677Z,96007.44
2022-08-21T01:34:51.029Z,96009.28
2022-08-21T01:37:21.119Z,96003.84
2022-08-21T01:39:48.962Z,96001.66
2022-08-21T01:42:17.184Z,96007.44
2022-08-21T01:44:45.504Z,95972.34
2022-08-21T01:47:15.909Z,95982.06
2022-08-21T01:49:46.269Z,95998.81
2022-08-21T01:52:14.121Z,96016.50
2022-08-21T01:54:43.788Z,95942.88
2022-08-21T01:57:12.954Z,96000.38
2022-08-21T01:59:41.143Z,95975.94
2022-08-21T02:02:09.438Z,95992.56
2022-08-21T02:04:37.299Z,95997.06
2022-08-21T02:07:08.349Z,95992.22
2022-08-21T02:09:36.202Z,95952.94
2022-08-21T02:12:10.037Z,95908.97
2022-08-21T02:14:37.734Z,95925.53
2022-08-21T02:17:09.255Z,95956.06
2022-08-21T02:19:40.334Z,95975.63
2022-08-21T02:22:09.065Z,95905.66
2022-08-21T02:24:38.516Z,95972.50
2022-08-21T02:27:26.570Z,95980.13
2022-08-21T02:29:56.340Z,95991.75
2022-08-21T02:32:24.019Z,95985.78
2022-08-21T02:34:51.709Z,95965.41
2022-08-21T02:37:19.415Z,95985.63
2022-08-21T02:39:47.185Z,95909.06
2022-08-21T02:42:14.962Z,95964.16
2022-08-21T02:44:44.170Z,95967.16
2022-08-21T02:47:11.897Z,95866.41
2022-08-21T02:49:39.622Z,95979.81
2022-08-21T02:52:07.522Z,95977.31
2022-08-21T02:54:35.206Z,95961.47
2022-08-21T02:57:02.989Z,95979.81
2022-08-21T02:59:30.709Z,95981.38
2022-08-21T03:01:59.963Z,95875.16
2022-08-21T03:04:27.679Z,95974.63
2022-08-21T03:06:55.427Z,95962.69
2022-08-21T03:09:23.161Z,95982.13
2022-08-21T03:11:51.373Z,95970.81
2022-08-21T03:14:19.435Z,95911.28
2022-08-21T03:16:47.551Z,95875.59
2022-08-21T03:19:16.710Z,95899.81
2022-08-21T03:21:44.505Z,95898.69
2022-08-21T03:24:12.241Z,95972.06
2022-08-21T03:26:41.442Z,95984.56
2022-08-21T03:29:09.329Z,95995.81
2022-08-21T03:31:37.112Z,96002.22
2022-08-21T03:34:04.857Z,95984.06
2022-08-21T03:36:33.936Z,95958.03
2022-08-21T03:39:01.689Z,95974.81
2022-08-21T03:41:29.407Z,95978.59
2022-08-21T03:43:57.112Z,95989.53
2022-08-21T03:46:24.782Z,95878.56
2022-08-21T03:48:53.647Z,95920.50
2022-08-21T03:51:21.436Z,95975.78
2022-08-21T03:53:50.545Z,95985.56
2022-08-21T03:56:18.296Z,95980.91
2022-08-21T03:58:46.597Z,95896.41
2022-08-21T04:01:14.349Z,95962.72
2022-08-21T04:03:42.122Z,95982.00
2022-08-21T04:06:09.858Z,95889.00
2022-08-21T04:08:37.672Z,95952.97
2022-08-21T04:11:08.366Z,96002.63
2022-08-21T04:13:36.236Z,95994.66
2022-08-21T04:16:12.651Z,95942.72
2022-08-21T04:18:40.569Z,96005.91
2022-08-21T04:21:10.966Z,95997.47
2022-08-21T04:23:39.378Z,95984.88
2022-08-21T04:26:08.784Z,96002.13
2022-08-21T04:28:36.633Z,95966.34
2022-08-21T04:31:05.027Z,95997.53
2022-08-21T04:33:32.888Z,96000.78
2022-08-21T04:36:00.598Z,95987.00
2022-08-21T04:38:33.157Z,96037.59
2022-08-21T04:41:06.422Z,96009.53
2022-08-21T04:43:35.588Z,95988.56
2022-08-21T04:46:03.414Z,96012.31
2022-08-21T04:48:31.245Z,95901.38
2022-08-21T04:51:03.429Z,96035.84
2022-08-21T04:53:37.127Z,96001.94
2022-08-21T04:56:10.175Z,95942.47
2022-08-21T04:58:42.566Z,95955.50
2022-08-21T05:01:15.190Z,96032.69
2022-08-21T05:03:43.097Z,96014.50
2022-08-21T05:06:16.903Z,96009.78
2022-08-21T05:08:47.546Z,95930.19
2022-08-21T05:11:15.271Z,95934.88
2022-08-21T05:13:44.443Z,95926.34
2022-08-21T05:16:12.196Z,95931.50
2022-08-21T05:18:40.093Z,96001.56
2022-08-21T05:21:07.792Z,96005.97
2022-08-21T05:23:35.780Z,95989.22
2022-08-21T05:26:04.894Z,96007.91
2022-08-21T05:28:33.093Z,96005.44
2022-08-21T05:31:02.595Z,96041.94
2022-08-21T05:33:30.541Z,95970.56
2022-08-21T05:35:58.521Z,96033.19
2022-08-21T05:38:29.509Z,96044.53
2022-08-21T05:40:57.664Z,96054.09
2022-08-21T05:43:25.565Z,95948.75
2022-08-21T05:45:53.382Z,95896.03
2022-08-21T05:48:24.751Z,96051.34
2022-08-21T05:50:53.729Z,95984.22
2022-08-21T05:53:23.139Z,96049.81
2022-08-21T05:55:51.922Z,96007.34
2022-08-21T05:58:23.816Z,95968.31
2022-08-21T06:00:53.794Z,96016.28
2022-08-21T06:03:26.175Z,96057.56
2022-08-21T06:05:54.340Z,96056.31
2022-08-21T06:08:23.454Z,96054.31
2022-08-21T06:10:53.792Z,96060.13
2022-08-21T06:13:22.893Z,95942.22
2022-08-21T06:15:51.794Z,96006.59
2022-08-21T06:18:19.711Z,96007.84
2022-08-21T06:20:48.915Z,95950.56
2022-08-21T06:23:16.667Z,95985.19
2022-08-21T06:25:44.526Z,96001.66
2022-08-21T06:28:13.727Z,95985.97
2022-08-21T06:30:42.063Z,95940.13
2022-08-21T06:33:10.293Z,96036.28
2022-08-21T06:35:38.186Z,95955.47
2022-08-21T06:38:11.139Z,95904.59
2022-08-21T06:40:44.829Z,95953.91
2022-08-21T06:43:18.339Z,96017.31
2022-08-21T06:45:46.527Z,95962.06
2022-08-21T06:48:18.919Z,96052.22
2022-08-21T06:50:47.477Z,96046.13
2022-08-21T06:53:20.259Z,96036.84
2022-08-21T06:55:49.549Z,96036.53
2022-08-21T06:58:18.049Z,96032.28
2022-08-21T07:00:48.213Z,96042.16
2022-08-21T07:03:21.205Z,96006.00
2022-08-21T07:05:49.059Z,95978.00
2022-08-21T07:08:18.502Z,95965.63
2022-08-21T07:10:47.571Z,96033.53
2022-08-21T07:13:15.529Z,95924.50
2022-08-21T07:15:43.409Z,96040.69
2022-08-21T07:18:11.212Z,96001.88
2022-08-21T07:20:38.919Z,95906.78
2022-08-21T07:23:10.922Z,96019.69
2022-08-21T07:25:40.553Z,96033.56
2022-08-21T07:28:08.302Z,95910.00
2022-08-21T07:30:36.067Z,96022.28
2022-08-21T07:33:04.815Z,96016.16
2022-08-21T07:35:34.174Z,96036.78
2022-08-21T07:38:02.036Z,96035.28
2022-08-21T07:40:29.736Z,95985.75
2022-08-21T07:42:59.016Z,95965.47
2022-08-21T07:45:27.218Z,96007.88
2022-08-21T07:47:57.489Z,96033.94
2022-08-21T07:50:26.138Z,96022.31
2022-08-21T07:52:54.734Z,96010.44
2022-08-21T07:55:24.678Z,95953.59
2022-08-21T07:57:52.524Z,96025.34
2022-08-21T08:00:24.351Z,96042.13
2022-08-21T08:02:55.093Z,96008.41
2022-08-21T08:05:26.935Z,96014.53
2022-08-21T08:07:55.142Z,95900.88
2022-08-21T08:10:23.793Z,96016.97
2022-08-21T08:12:52.848Z,95993.91
2022-08-21T08:15:24.969Z,96022.91
2022-08-21T08:17:53.167Z,96008.78
2022-08-21T08:20:22.513Z,96012.94
2022-08-21T08:22:50.613Z,96023.81
2022-08-21T08:25:20.526Z,95956.84
2022-08-21T08:27:48.292Z,95984.00
2022-08-21T08:30:19.131Z,95951.97
2022-08-21T08:32:50.459Z,96016.09
2022-08-21T08:35:18.584Z,96015.19
2022-08-21T08:37:52.370Z,96017.75
2022-08-21T08:40:26.774Z,95925.56
2022-08-21T08:42:54.489Z,96017.09
2022-08-21T08:45:25.184Z,96013.63
2022-08-21T08:47:59.019Z,96021.47
2022-08-21T08:50:35.377Z,96008.50
2022-08-21T08:53:08.266Z,96024.84
2022-08-21T08:55:38.816Z,95995.81
2022-08-21T08:58:07.243Z,96002.34
2022-08-21T09:00:35.411Z,96014.75
2022-08-21T09:03:05.411Z,96013.09
2022-08-21T09:05:45.130Z,95979.53
2022-08-21T09:08:43.539Z,95993.47
2022-08-21T09:11:24.765Z,95994.81
2022-08-21T09:14:02.258Z,95975.00
2022-08-21T09:16:41.503Z,95924.28
2022-08-21T09:19:26.098Z,95989.16
2022-08-21T09:22:02.959Z,95997.38
2022-08-21T09:24:34.498Z,96002.84
2022-08-21T09:27:08.291Z,95990.44
2022-08-21T09:29:38.794Z,95994.06
2022-08-21T09:32:20.586Z,96012.88
2022-08-21T09:35:01.961Z,96001.38
2022-08-21T09:37:31.703Z,96002.84
2022-08-21T09:40:00.488Z,95978.13
2022-08-21T09:42:33.054Z,95997.97
2022-08-21T09:45:12.264Z,96006.91
2022-08-21T09:47:40.067Z,95932.28
2022-08-21T09:50:16.064Z,95858.34
2022-08-21T09:52:52.214Z,95932.31
2022-08-21T09:55:51.164Z,95901.38
2022-08-21T09:58:20.187Z,95983.19
2022-08-21T10:00:48.139Z,95996.16
2022-08-21T10:03:22.458Z,95926.22
2022-08-21T10:05:58.952Z,95972.09
2022-08-21T10:08:29.489Z,95984.13
2022-08-21T10:11:03.119Z,95999.19
2022-08-21T10:13:45.450Z,95990.06
2022-08-21T10:16:26.259Z,95983.16
2022-08-21T10:19:04.828Z,95940.09
2022-08-21T10:21:43.079Z,95929.28
2022-08-21T10:24:30.531Z,95977.25
2022-08-21T10:27:12.982Z,95896.97
2022-08-21T10:29:47.364Z,95901.66
2022-08-21T10:32:27.438Z,95983.56
2022-08-21T10:35:04.284Z,95932.09
2022-08-21T10:37:44.939Z,95905.69
2022-08-21T10:40:23.304Z,95914.25
2022-08-21T10:43:04.271Z,95934.47
2022-08-21T10:45:44.413Z,95956.31
2022-08-21T10:48:22.219Z,95933.78
2022-08-21T10:50:54.662Z,95905.94
2022-08-21T10:53:37.966Z,95935.78
2022-08-21T10:56:15.256Z,95881.41
2022-08-21T10:58:51.512Z,95913.56
2022-08-21T11:01:22.960Z,95974.69
2022-08-21T11:03:56.500Z,95873.38
2022-08-21T11:06:32.974Z,95868.59
2022-08-21T11:09:12.943Z,95972.19
2022-08-21T11:11:50.162Z,95956.72
2022-08-21T11:14:38.244Z,95918.50
2022-08-21T11:17:12.022Z,95893.97
2022-08-21T11:19:47.523Z,95891.88
2022-08-21T11:22:20.810Z,95937.13
2022-08-21T11:24:56.660Z,95870.75
2022-08-21T11:27:28.800Z,95913.66
2022-08-21T11:29:59.406Z,95893.16
2022-08-21T11:32:46.246Z,95835.34
2022-08-21T11:35:25.274Z,95916.31
2022-08-21T11:38:18.354Z,95933.72
2022-08-21T11:41:04.216Z,95936.50
2022-08-21T11:43:39.840Z,95924.38
2022-08-21T11:46:27.464Z,95934.41
2022-08-21T11:49:08.697Z,95935.94
2022-08-21T11:51:41.377Z,95868.53
2022-08-21T11:54:25.255Z,95920.25
2022-08-21T11:57:01.659Z,95928.50
2022-08-21T11:59:45.078Z,95870.88
2022-08-21T12:02:17.186Z,95911.75
2022-08-21T12:04:49.190Z,95804.31
2022-08-21T12:07:31.833Z,95792.59
2022-08-21T12:10:00.917Z,95913.63
2022-08-21T12:12:31.922Z,95897.16
2022-08-21T12:15:16.505Z,95908.63
2022-08-21T12:17:56.354Z,95903.19
2022-08-21T12:20:50.704Z,95876.84
2022-08-21T12:23:28.958Z,95906.56
2022-08-21T12:26:23.846Z,95896.41
2022-08-21T12:28:53.295Z,95902.03
2022-08-21T12:31:25.727Z,95886.94
2022-08-21T12:33:59.180Z,95787.56
2022-08-21T12:36:38.891Z,95890.38
2022-08-21T12:39:13.294Z,95901.09
2022-08-21T12:41:52.236Z,95897.56
2022-08-21T12:44:26.642Z,95871.00
2022-08-21T12:47:00.345Z,95741.19
2022-08-21T12:49:34.122Z,95828.50
2022-08-21T12:52:13.398Z,95774.94
2022-08-21T12:54:44.342Z,95869.72
2022-08-21T12:57:21.195Z,95813.97
2022-08-21T12:59:56.810Z,95868.06
2022-08-21T13:02:31.658Z,95878.28
2022-08-21T13:05:00.456Z,95876.34
2022-08-21T13:07:31.652Z,95857.97
2022-08-21T13:10:06.717Z,95871.56
2022-08-21T13:12:37.064Z,95852.25
2022-08-21T13:15:09.082Z,95867.09
2022-08-21T13:17:42.011Z,95818.22
2022-08-21T13:20:12.359Z,95824.53
2022-08-21T13:22:45.004Z,95752.56
2022-08-21T13:25:14.119Z,95835.75
2022-08-21T13:27:42.474Z,95865.78
2022-08-21T13:30:15.631Z,95873.59
2022-08-21T13:32:46.331Z,95815.91
2022-08-21T13:35:17.705Z,95770.38
2022-08-21T13:37:48.362Z,95850.25
2022-08-21T13:40:19.737Z,95720.63
2022-08-21T13:42:49.879Z,95822.25
2022-08-21T13:45:25.129Z,95844.09
2022-08-21T13:47:54.053Z,95783.50
2022-08-21T13:50:24.956Z,95847.25
2022-08-21T13:53:02.577Z,95804.56
2022-08-21T13:55:40.227Z,95841.88
2022-08-21T13:58:09.354Z,95775.97
2022-08-21T14:00:47.976Z,95725.94
2022-08-21T14:03:28.727Z,95771.38
2022-08-21T14:05:56.514Z,95829.41
2022-08-21T14:08:33.339Z,95848.81
2022-08-21T14:11:02.568Z,95807.72
2022-08-21T14:13:38.672Z,95834.47
2022-08-21T14:16:16.536Z,95746.56
2022-08-21T14:18:53.378Z,95794.53
2022-08-21T14:21:34.253Z,95838.50
2022-08-21T14:24:06.875Z,95775.56
2022-08-21T14:26:38.277Z,95833.59
2022-08-21T14:29:10.892Z,95741.88
2022-08-21T14:31:43.346Z,95779.91
2022-08-21T14:34:19.106Z,95770.03
2022-08-21T14:36:47.907Z,95828.88
2022-08-21T14:39:15.803Z,95828.75
2022-08-21T14:41:43.859Z,95828.00
2022-08-21T14:44:12.117Z,95737.09
2022-08-21T14:46:55.314Z,95744.63
2022-08-21T14:49:27.709Z,95813.97
2022-08-21T14:51:58.559Z,95713.44
2022-08-21T14:54:31.566Z,95747.47
2022-08-21T14:57:02.633Z,95774.94
2022-08-21T14:59:31.248Z,95809.06
2022-08-21T15:02:05.379Z,95814.66
2022-08-21T15:04:33.415Z,95764.56
2022-08-21T15:07:01.295Z,95790.16
2022-08-21T15:09:29.240Z,95790.91
2022-08-21T15:12:00.591Z,95817.34
2022-08-21T15:14:30.758Z,95830.06
2022-08-21T15:16:58.818Z,95801.78
2022-08-21T15:19:28.334Z,95755.91
2022-08-21T15:21:56.212Z,95781.47
2022-08-21T15:24:24.445Z,95818.09
2022-08-21T15:26:53.134Z,95813.91
2022-08-21T15:29:22.637Z,95824.97
2022-08-21T15:31:56.657Z,95818.78
2022-08-21T15:34:27.220Z,95814.81
2022-08-21T15:36:58.152Z,95818.41
2022-08-21T15:39:31.256Z,95815.31
2022-08-21T15:41:59.924Z,95821.09
2022-08-21T15:44:31.397Z,95808.91
2022-08-21T15:47:00.737Z,95808.72
2022-08-21T15:49:28.399Z,95800.19
2022-08-21T15:51:57.428Z,95797.50
2022-08-21T15:54:25.150Z,95809.34
2022-08-21T15:56:53.543Z,95807.81
2022-08-21T15:59:27.732Z,95805.16
2022-08-21T16:01:55.603Z,95808.59
2022-08-21T16:04:26.282Z,95803.97
2022-08-21T16:07:01.770Z,95802.41
2022-08-21T16:09:34.431Z,95795.50
2022-08-21T16:12:03.350Z,95797.34
2022-08-21T16:14:32.318Z,95801.09
2022-08-21T16:17:00.291Z,95801.09
2022-08-21T16:19:30.684Z,95796.81
2022-08-21T16:21:58.346Z,95795.63
2022-08-21T16:24:26.065Z,95799.03
2022-08-21T16:26:58.067Z,95789.53
2022-08-21T16:29:31.338Z,95794.22
2022-08-21T16:31:59.070Z,95788.69
2022-08-21T16:34:28.504Z,95790.91
2022-08-21T16:36:56.264Z,95773.19
2022-08-21T16:39:24.200Z,95778.53
2022-08-21T16:41:52.040Z,95778.84
2022-08-21T16:44:22.900Z,95780.69
2022-08-21T16:46:50.849Z,95781.41
2022-08-21T16:49:18.474Z,95772.16
2022-08-21T16:51:46.088Z,95775.97
2022-08-21T16:54:13.963Z,95770.50
2022-08-21T16:56:45.713Z,95755.72
2022-08-21T16:59:15.267Z,95770.75
2022-08-21T17:01:47.073Z,95771.44
2022-08-21T17:04:14.972Z,95765.56
2022-08-21T17:06:44.014Z,95766.22
2022-08-21T17:09:12.480Z,95775.06
2022-08-21T17:11:42.725Z,95756.03
2022-08-21T17:14:13.574Z,95778.41
2022-08-21T17:16:46.335Z,95786.78
2022-08-21T17:19:16.180Z,95780.63
2022-08-21T17:21:45.706Z,95782.78
2022-08-21T17:24:15.461Z,95769.19
2022-08-21T17:26:44.313Z,95784.38
2022-08-21T17:29:14.400Z,95780.88
2022-08-21T17:31:43.499Z,95783.72
2022-08-21T17:34:11.532Z,95786.19
2022-08-21T17:36:40.679Z,95783.34
2022-08-21T17:39:09.836Z,95768.41
2022-08-21T17:41:37.967Z,95776.00
2022-08-21T17:44:09.410Z,95780.13
2022-08-21T17:46:39.668Z,95774.97
2022-08-21T17:49:08.261Z,95782.75
2022-08-21T17:51:36.164Z,95777.53
2022-08-21T17:54:05.413Z,95778.09
2022-08-21T17:56:36.185Z,95787.28
2022-08-21T17:59:05.762Z,95786.19
2022-08-21T18:01:36.492Z,95783.59
2022-08-21T18:04:04.777Z,95783.72
2022-08-21T18:06:32.669Z,95790.81
2022-08-21T18:09:00.447Z,95788.22
2022-08-21T18:11:31.887Z,95789.09
2022-08-21T18:14:07.184Z,95791.94
2022-08-21T18:16:37.469Z,95794.75
2022-08-21T18:19:08.757Z,95798.63
2022-08-21T18:21:39.117Z,95801.47
2022-08-21T18:24:07.444Z,95799.16
2022-08-21T18:26:39.000Z,95805.19
2022-08-21T18:29:09.793Z,95817.16
2022-08-21T18:31:40.101Z,95814.53
2022-08-21T18:34:12.088Z,95810.34
2022-08-21T18:36:39.985Z,95811.63
2022-08-21T18:39:34.296Z,95803.03
2022-08-21T18:41:57.285Z,95809.75
2022-08-21T18:44:28.595Z,95820.91
2022-08-21T18:46:58.085Z,95813.47
2022-08-21T18:49:25.806Z,95815.91
2022-08-21T18:51:53.793Z,95818.03
2022-08-21T18:54:25.086Z,95823.25
2022-08-21T18:56:54.981Z,95815.38
2022-08-21T18:59:26.775Z,95806.50
2022-08-21T19:01:54.973Z,95815.63
2022-08-21T19:07:10.825Z,95817.84
2022-08-21T19:09:38.559Z,95809.84
2022-08-21T19:12:08.576Z,95824.97
2022-08-21T19:14:40.862Z,95825.97
2022-08-21T19:17:09.752Z,95814.72
2022-08-21T19:19:39.389Z,95803.34
2022-08-21T19:22:11.676Z,95836.09
2022-08-21T19:24:40.229Z,95829.50
2022-08-21T19:27:17.991Z,95831.16
2022-08-21T19:29:47.023Z,95832.94
2022-08-21T19:32:14.966Z,95833.78
2022-08-21T19:34:43.276Z,95837.81
2022-08-21T19:37:16.193Z,95833.75
2022-08-21T19:42:34.585Z,95837.75
2022-08-21T19:45:05.565Z,95840.00
2022-08-21T19:47:33.741Z,95839.06
2022-08-21T19:50:17.479Z,95833.94
2022-08-21T19:52:55.040Z,95834.13
2022-08-21T19:55:29.331Z,95837.34
2022-08-21T19:57:57.225Z,95833.78
2022-08-21T20:00:26.967Z,95836.00
2022-08-21T20:02:54.597Z,95825.59
2022-08-21T20:05:22.557Z,95828.97
2022-08-21T20:07:50.473Z,95827.28
2022-08-21T20:10:18.710Z,95828.78
2022-08-21T20:12:50.505Z,95829.25
2022-08-21T20:15:21.974Z,95836.47
2022-08-21T20:17:52.152Z,95829.00
2022-08-21T20:20:20.736Z,95828.19
2022-08-21T20:22:48.521Z,95827.94
2022-08-21T20:25:16.183Z,95819.06
2022-08-21T20:27:49.112Z,95823.59
2022-08-21T20:30:18.367Z,95817.19
2022-08-21T20:32:51.813Z,95826.56
2022-08-21T20:35:19.749Z,95821.59
2022-08-21T20:37:58.527Z,95816.75
2022-08-21T20:40:32.598Z,95821.94
2022-08-21T20:43:02.443Z,95820.56
2022-08-21T20:45:32.878Z,95829.53
2022-08-21T20:48:08.008Z,95819.84
2022-08-21T20:50:40.287Z,95825.03
2022-08-21T20:53:13.231Z,95827.69
2022-08-21T20:55:46.574Z,95823.47
2022-08-21T20:58:22.171Z,95823.19
2022-08-21T21:00:59.923Z,95822.28
2022-08-21T21:03:35.131Z,95829.16
2022-08-21T21:06:06.533Z,95820.13
2022-08-21T21:08:40.606Z,95821.88
2022-08-21T21:11:18.188Z,95818.44
2022-08-21T21:13:50.530Z,95817.06
2022-08-21T21:16:24.077Z,95821.94
2022-08-21T21:19:01.543Z,95814.56
2022-08-21T21:21:34.904Z,95820.69
2022-08-21T21:24:08.461Z,95786.97
2022-08-21T21:26:46.103Z,95767.81
2022-08-21T21:29:21.657Z,95819.16
2022-08-21T21:31:49.576Z,95787.31
2022-08-21T21:34:18.729Z,95819.34
2022-08-21T21:36:56.129Z,95815.44
2022-08-21T21:39:35.981Z,95802.53
2022-08-21T21:42:16.140Z,95808.59
2022-08-21T21:45:11.550Z,95825.84
2022-08-21T21:47:51.846Z,95826.94
2022-08-21T21:50:33.789Z,95825.22
2022-08-21T21:53:18.458Z,95829.28
2022-08-21T21:56:07.966Z,95771.34
2022-08-21T21:58:47.565Z,95811.81
2022-08-21T22:01:22.106Z,95825.72
2022-08-21T22:03:58.034Z,95794.16
2022-08-21T22:06:35.615Z,95821.69
2022-08-21T22:09:11.255Z,95824.91
2022-08-21T22:14:40.726Z,95769.63
2022-08-21T22:17:19.453Z,95787.88
2022-08-21T22:19:50.711Z,95706.19
2022-08-21T22:22:23.771Z,95822.25
2022-08-21T22:24:55.181Z,95816.66
2022-08-21T22:27:27.494Z,95823.22
2022-08-21T22:29:58.605Z,95822.63
2022-08-21T22:32:30.360Z,95825.75
2022-08-21T22:35:03.051Z,95827.66
2022-08-21T22:37:38.238Z,95833.28
2022-08-21T22:40:07.850Z,95825.63
2022-08-21T22:42:35.521Z,95826.56
2022-08-21T22:45:09.388Z,95824.22
2022-08-21T22:47:44.764Z,95820.00
2022-08-21T22:50:21.451Z,95745.44
2022-08-21T22:52:54.526Z,95812.66
2022-08-21T22:55:25.770Z,95818.91
2022-08-21T22:58:09.424Z,95824.88
2022-08-21T23:00:51.393Z,95822.50
2022-08-21T23:03:26.598Z,95811.25
2022-08-21T23:06:00.686Z,95830.50
2022-08-21T23:08:34.224Z,95812.97
2022-08-21T23:11:08.758Z,95818.75
2022-08-21T23:13:41.419Z,95820.50
2022-08-21T23:16:24.278Z,95783.28
2022-08-21T23:19:03.562Z,95815.31
2022-08-21T23:21:43.105Z,95812.66
2022-08-21T23:24:30.159Z,95801.41
2022-08-21T23:27:14.695Z,95780.91
2022-08-21T23:29:56.007Z,95809.69
2022-08-21T23:32:52.381Z,95726.34
2022-08-21T23:35:43.909Z,95798.91
2022-08-21T23:38:22.856Z,95815.66
2022-08-21T23:40:56.439Z,95814.38
2022-08-21T23:43:40.750Z,95759.81
2022-08-21T23:46:33.429Z,95806.38
2022-08-21T23:49:13.744Z,95809.38
2022-08-21T23:51:53.386Z,95808.13
2022-08-21T23:54:25.394Z,95809.84
